BIN weather

Bamiyan Airport
Bamiyan, Bamiyan Province, Afghanistan

Public forecast

Using degrees Celsius for public forecast. Weather courtesy of forecast.io.

METAR (pilot weather report)

Closest report is Hamid Karzai International Airport, 70.5 nm (130.6 km) ESE. Retrieved 2019/08/25 20:50 UTC (21 minutes ago):

OAKB 252050Z VRB01KT CAVOK 21/13 Q1016 NOSIG RMK A3001 BLU BLU

TAF (pilot weather forecast)

Closest forecast is Hamid Karzai International Airport, 70.5 nm (130.6 km) ESE. Retrieved 2019/08/25 18:05 UTC (3 hours ago):

TAF OAKB 251705Z 2518/2618 VRB02KT CAVOK TEMPO 2600/2604 7000 BECMG 2606/2608 04012KT 9999 FEW050 SCT120 PROB30 TEMPO 2608/2615 35020G35KT 8000 TSRA SCT050CB BKN120